createdAt,value
2023-01-15T00:01:42.078Z,99593.44
2023-01-15T00:04:08.633Z,99597.16
2023-01-15T00:06:38.140Z,99599.84
2023-01-15T00:09:05.944Z,99598.38
2023-01-15T00:11:32.524Z,99594.41
2023-01-15T00:13:59.020Z,99595.16
2023-01-15T00:16:27.335Z,99582.69
2023-01-15T00:18:59.140Z,99587.00
2023-01-15T00:21:27.156Z,99575.59
2023-01-15T00:24:13.069Z,99580.38
2023-01-15T00:26:59.124Z,99581.13
2023-01-15T00:29:26.204Z,99588.63
2023-01-15T00:31:59.527Z,99588.59
2023-01-15T00:34:27.146Z,99581.88
2023-01-15T00:36:53.777Z,99585.03
2023-01-15T00:39:20.542Z,99588.94
2023-01-15T00:41:47.520Z,99588.59
2023-01-15T00:44:14.133Z,99576.31
2023-01-15T00:46:40.715Z,99578.69
2023-01-15T00:49:07.740Z,99563.28
2023-01-15T00:51:34.381Z,99542.47
2023-01-15T00:54:00.935Z,99528.66
2023-01-15T00:56:27.868Z,99547.91
2023-01-15T00:58:54.417Z,99539.66
2023-01-15T01:01:21.016Z,99560.88
2023-01-15T01:03:49.034Z,99560.88
2023-01-15T01:06:17.033Z,99548.31
2023-01-15T01:08:45.986Z,99527.38
2023-01-15T01:11:15.081Z,99535.31
2023-01-15T01:13:41.866Z,99543.94
2023-01-15T01:16:35.655Z,99532.16
2023-01-15T01:19:08.841Z,99554.50
2023-01-15T01:21:37.424Z,99568.72
2023-01-15T01:24:04.078Z,99570.69
2023-01-15T01:26:30.816Z,99591.94
2023-01-15T01:28:58.167Z,99578.94
2023-01-15T01:31:24.838Z,99570.72
2023-01-15T01:33:54.130Z,99586.41
2023-01-15T01:36:21.603Z,99595.00
2023-01-15T01:38:51.530Z,99599.38
2023-01-15T01:41:18.707Z,99589.44
2023-01-15T01:43:59.151Z,99576.88
2023-01-15T01:46:27.259Z,99585.09
2023-01-15T01:49:14.103Z,99584.75
2023-01-15T01:51:45.838Z,99598.44
2023-01-15T01:54:16.065Z,99597.25
2023-01-15T01:56:42.662Z,99584.31
2023-01-15T01:59:09.475Z,99602.84
2023-01-15T02:01:36.250Z,99579.19
2023-01-15T02:04:06.529Z,99574.22
2023-01-15T02:06:33.311Z,99597.25
2023-01-15T02:08:59.829Z,99600.03
2023-01-15T02:11:35.108Z,99583.47
2023-01-15T02:14:01.446Z,99585.47
2023-01-15T02:16:35.329Z,99581.94
2023-01-15T02:19:37.709Z,99575.59
2023-01-15T02:22:33.731Z,99587.03
2023-01-15T02:25:00.048Z,99589.38
2023-01-15T02:27:26.890Z,99586.63
2023-01-15T02:30:08.670Z,99580.31
2023-01-15T02:32:50.140Z,99589.31
2023-01-15T02:35:21.877Z,99571.97
2023-01-15T02:37:55.456Z,99568.88
2023-01-15T02:40:24.565Z,99558.63
2023-01-15T02:42:51.139Z,99551.53
2023-01-15T02:45:27.004Z,99563.38
2023-01-15T02:47:56.264Z,99551.91
2023-01-15T02:50:30.798Z,99568.84
2023-01-15T02:53:05.557Z,99566.94
2023-01-15T02:55:37.134Z,99560.63
2023-01-15T02:58:09.733Z,99562.19
2023-01-15T03:00:41.092Z,99559.38
2023-01-15T03:03:17.550Z,99554.72
2023-01-15T03:05:54.017Z,99550.69
2023-01-15T03:08:20.510Z,99549.97
2023-01-15T03:11:19.017Z,99560.22
2023-01-15T03:13:52.695Z,99581.88
2023-01-15T03:16:35.826Z,99563.25
2023-01-15T03:19:23.553Z,99558.34
2023-01-15T03:22:08.395Z,99549.25
2023-01-15T03:24:47.310Z,99544.03
2023-01-15T03:27:15.528Z,99535.03
2023-01-15T03:29:46.012Z,99542.84
2023-01-15T03:32:13.305Z,99552.78
2023-01-15T03:34:46.202Z,99525.19
2023-01-15T03:37:12.915Z,99543.31
2023-01-15T03:39:41.659Z,99535.03
2023-01-15T03:42:26.602Z,99534.25
2023-01-15T03:45:08.370Z,99531.50
2023-01-15T03:48:11.874Z,99520.47
2023-01-15T03:50:49.928Z,99531.94
2023-01-15T03:53:21.587Z,99549.25
2023-01-15T03:55:54.818Z,99538.25
2023-01-15T03:58:35.739Z,99537.78
2023-01-15T04:01:05.953Z,99533.81
2023-01-15T04:03:34.486Z,99536.97
2023-01-15T04:06:03.377Z,99531.09
2023-01-15T04:08:34.619Z,99535.84
2023-01-15T04:11:02.377Z,99553.97
2023-01-15T04:13:31.417Z,99548.47
2023-01-15T04:15:58.270Z,99544.97
2023-01-15T04:18:24.876Z,99540.22
2023-01-15T04:20:51.404Z,99543.44
2023-01-15T04:23:18.218Z,99541.03
2023-01-15T04:25:44.675Z,99531.19
2023-01-15T04:28:11.305Z,99520.94
2023-01-15T04:30:37.809Z,99530.41
2023-01-15T04:33:04.677Z,99532.00
2023-01-15T04:35:31.379Z,99532.31
2023-01-15T04:37:59.266Z,99538.59
2023-01-15T04:40:44.815Z,99543.03
2023-01-15T04:43:30.818Z,99550.91
2023-01-15T04:45:57.674Z,99556.38
2023-01-15T04:48:24.545Z,99556.41
2023-01-15T04:50:51.524Z,99561.84
2023-01-15T04:53:18.160Z,99557.94
2023-01-15T04:55:44.630Z,99545.38
2023-01-15T04:58:11.122Z,99554.78
2023-01-15T05:00:37.584Z,99539.75
2023-01-15T05:03:04.094Z,99537.81
2023-01-15T05:05:32.529Z,99541.41
2023-01-15T05:07:59.046Z,99545.66
2023-01-15T05:10:25.491Z,99539.00
2023-01-15T05:12:51.931Z,99531.56
2023-01-15T05:15:18.442Z,99553.19
2023-01-15T05:17:44.888Z,99551.94
2023-01-15T05:20:11.808Z,99537.88
2023-01-15T05:22:38.266Z,99532.75
2023-01-15T05:25:05.132Z,99531.50
2023-01-15T05:27:31.752Z,99540.63
2023-01-15T05:29:58.207Z,99541.69
2023-01-15T05:32:24.650Z,99540.63
2023-01-15T05:34:51.101Z,99535.06
2023-01-15T05:37:17.543Z,99532.69
2023-01-15T05:39:43.991Z,99534.28
2023-01-15T05:42:10.465Z,99531.16
2023-01-15T05:44:37.072Z,99539.06
2023-01-15T05:47:05.910Z,99540.22
2023-01-15T05:49:32.534Z,99538.59
2023-01-15T05:52:00.689Z,99540.88
2023-01-15T05:54:29.924Z,99528.69
2023-01-15T05:56:56.985Z,99536.19
2023-01-15T05:59:26.003Z,99538.94
2023-01-15T06:01:53.481Z,99547.53
2023-01-15T06:04:21.767Z,99547.94
2023-01-15T06:06:50.279Z,99563.38
2023-01-15T06:09:17.314Z,99542.84
2023-01-15T06:11:43.898Z,99542.84
2023-01-15T06:14:12.479Z,99555.91
2023-01-15T06:16:41.116Z,99557.06
2023-01-15T06:19:09.673Z,99548.34
2023-01-15T06:21:36.525Z,99553.84
2023-01-15T06:24:03.905Z,99556.22
2023-01-15T06:26:30.393Z,99555.44
2023-01-15T06:28:56.888Z,99558.91
2023-01-15T06:31:24.343Z,99556.13
2023-01-15T06:33:50.963Z,99564.00
2023-01-15T06:36:21.654Z,99552.94
2023-01-15T06:38:48.804Z,99551.00
2023-01-15T06:41:38.121Z,99563.19
2023-01-15T06:44:23.483Z,99561.25
2023-01-15T06:47:09.819Z,99558.88
2023-01-15T06:49:37.298Z,99572.72
2023-01-15T06:52:04.449Z,99558.81
2023-01-15T06:54:31.452Z,99555.25
2023-01-15T06:56:57.900Z,99565.53
2023-01-15T06:59:24.556Z,99589.53
2023-01-15T07:01:51.079Z,99598.50
2023-01-15T07:04:17.762Z,99552.31
2023-01-15T07:06:44.332Z,99552.56
2023-01-15T07:09:11.006Z,99556.91
2023-01-15T07:11:49.414Z,99556.50
2023-01-15T07:14:21.353Z,99542.78
2023-01-15T07:16:48.585Z,99525.44
2023-01-15T07:19:15.623Z,99545.84
2023-01-15T07:21:42.366Z,99547.31
2023-01-15T07:24:10.660Z,99534.63
2023-01-15T07:26:37.338Z,99538.22
2023-01-15T07:29:04.640Z,99547.97
2023-01-15T07:31:31.452Z,99549.47
2023-01-15T07:33:57.931Z,99554.97
2023-01-15T07:36:25.265Z,99570.69
2023-01-15T07:38:52.143Z,99560.47
2023-01-15T07:41:37.352Z,99577.34
2023-01-15T07:44:22.718Z,99584.75
2023-01-15T07:47:07.514Z,99594.19
2023-01-15T07:49:45.834Z,99594.94
2023-01-15T07:52:20.781Z,99582.38
2023-01-15T07:54:49.262Z,99594.19
2023-01-15T07:57:19.711Z,99602.06
2023-01-15T07:59:46.226Z,99588.63
2023-01-15T08:02:13.155Z,99586.28
2023-01-15T08:04:40.128Z,99602.41
2023-01-15T08:07:06.685Z,99613.41
2023-01-15T08:09:33.403Z,99607.53
2023-01-15T08:12:19.941Z,99616.97
2023-01-15T08:15:05.828Z,99614.22
2023-01-15T08:17:38.875Z,99605.91
2023-01-15T08:20:15.460Z,99606.75
2023-01-15T08:22:42.412Z,99609.34
2023-01-15T08:25:10.540Z,99618.38
2023-01-15T08:27:37.924Z,99618.06
2023-01-15T08:30:10.789Z,99635.78
2023-01-15T08:32:37.260Z,99638.13
2023-01-15T08:35:04.511Z,99624.75
2023-01-15T08:37:31.040Z,99637.31
2023-01-15T08:39:57.578Z,99641.69
2023-01-15T08:42:24.058Z,99640.50
2023-01-15T08:44:50.545Z,99630.69
2023-01-15T08:47:17.766Z,99627.53
2023-01-15T08:49:44.590Z,99634.97
2023-01-15T08:52:11.078Z,99633.03
2023-01-15T08:54:37.539Z,99643.59
2023-01-15T08:57:04.177Z,99631.13
2023-01-15T08:59:30.653Z,99636.94
2023-01-15T09:01:57.253Z,99649.66
2023-01-15T09:04:23.840Z,99651.16
2023-01-15T09:06:50.416Z,99655.09
2023-01-15T09:09:18.782Z,99642.97
2023-01-15T09:11:46.257Z,99648.84
2023-01-15T09:14:57.999Z,99666.13
2023-01-15T09:17:01.859Z,99664.56
2023-01-15T09:19:28.406Z,99666.56
2023-01-15T09:21:54.857Z,99652.69
2023-01-15T09:24:21.366Z,99656.31
2023-01-15T09:26:47.849Z,99646.81
2023-01-15T09:29:14.585Z,99654.69
2023-01-15T09:31:41.110Z,99637.78
2023-01-15T09:34:07.582Z,99653.47
2023-01-15T09:36:35.279Z,99638.13
2023-01-15T09:39:03.900Z,99636.91
2023-01-15T09:42:10.728Z,99641.59
2023-01-15T09:44:44.589Z,99650.59
2023-01-15T09:47:31.961Z,99651.44
2023-01-15T09:50:40.052Z,99670.28
2023-01-15T09:53:40.431Z,99650.31
2023-01-15T09:56:15.427Z,99647.16
2023-01-15T09:58:42.310Z,99645.94
2023-01-15T10:01:17.242Z,99643.59
2023-01-15T10:03:50.508Z,99623.50
2023-01-15T10:06:29.062Z,99661.72
2023-01-15T10:09:04.290Z,99653.78
2023-01-15T10:12:01.719Z,99683.31
2023-01-15T10:14:39.262Z,99661.72
2023-01-15T10:17:19.372Z,99667.22
2023-01-15T10:19:45.882Z,99668.44
2023-01-15T10:22:35.282Z,99654.59
2023-01-15T10:25:05.432Z,99682.53
2023-01-15T10:27:33.503Z,99673.50
2023-01-15T10:30:23.151Z,99663.63
2023-01-15T10:33:04.012Z,99665.97
2023-01-15T10:35:34.325Z,99650.44
2023-01-15T10:38:15.162Z,99661.72
2023-01-15T10:40:53.841Z,99676.25
2023-01-15T10:43:55.901Z,99665.22
2023-01-15T10:46:33.333Z,99655.25
2023-01-15T10:49:04.242Z,99673.59
2023-01-15T10:51:38.339Z,99666.69
2023-01-15T10:54:12.407Z,99670.53
2023-01-15T10:57:01.922Z,99702.19
2023-01-15T10:59:39.598Z,99681.22
2023-01-15T11:02:42.573Z,99673.28
2023-01-15T11:05:19.662Z,99674.28
2023-01-15T11:08:10.409Z,99690.59
2023-01-15T11:10:35.120Z,99670.50
2023-01-15T11:13:40.337Z,99682.81
2023-01-15T11:16:36.848Z,99666.53
2023-01-15T11:19:24.225Z,99683.03
2023-01-15T11:21:52.343Z,99678.84
2023-01-15T11:24:19.206Z,99664.44
2023-01-15T11:26:50.038Z,99672.69
2023-01-15T11:29:34.396Z,99674.88
2023-01-15T11:32:00.877Z,99672.72
2023-01-15T11:34:27.374Z,99715.38
2023-01-15T11:37:04.908Z,99674.50
2023-01-15T11:39:31.471Z,99678.63
2023-01-15T11:42:22.177Z,99659.81
2023-01-15T11:45:11.953Z,99660.00
2023-01-15T11:47:57.444Z,99663.72
2023-01-15T11:50:42.918Z,99666.47
2023-01-15T11:53:18.780Z,99675.94
2023-01-15T11:56:02.670Z,99665.00
2023-01-15T11:58:34.068Z,99683.91
2023-01-15T12:01:01.111Z,99665.47
2023-01-15T12:03:31.395Z,99660.34
2023-01-15T12:06:05.567Z,99663.91
2023-01-15T12:08:51.666Z,99675.13
2023-01-15T12:11:27.082Z,99669.31
2023-01-15T12:14:01.164Z,99676.94
2023-01-15T12:16:42.349Z,99659.09
2023-01-15T12:19:37.398Z,99649.75
2023-01-15T12:22:10.579Z,99671.31
2023-01-15T12:24:46.131Z,99663.38
2023-01-15T12:27:30.069Z,99653.16
2023-01-15T12:30:03.336Z,99659.06
2023-01-15T12:32:37.171Z,99664.25
2023-01-15T12:35:18.843Z,99657.16
2023-01-15T12:37:52.645Z,99639.44
2023-01-15T12:40:29.097Z,99652.91
2023-01-15T12:43:15.315Z,99653.19
2023-01-15T12:45:46.962Z,99688.75
2023-01-15T12:48:28.849Z,99627.94
2023-01-15T12:50:59.268Z,99604.03
2023-01-15T12:53:30.077Z,99624.13
2023-01-15T12:56:05.162Z,99623.66
2023-01-15T12:58:39.190Z,99628.69
2023-01-15T13:01:30.602Z,99665.13
2023-01-15T13:04:11.098Z,99652.56
2023-01-15T13:06:41.498Z,99657.56
2023-01-15T13:09:29.607Z,99656.72
2023-01-15T13:11:57.406Z,99649.84
2023-01-15T13:14:24.658Z,99657.78
2023-01-15T13:17:00.576Z,99637.84
2023-01-15T13:19:37.306Z,99630.72
2023-01-15T13:22:10.989Z,99675.38
2023-01-15T13:24:54.019Z,99640.34
2023-01-15T13:27:29.602Z,99657.22
2023-01-15T13:30:15.097Z,99655.25
2023-01-15T13:32:54.917Z,99659.34
2023-01-15T13:35:33.318Z,99655.72
2023-01-15T13:38:03.403Z,99655.94
2023-01-15T13:40:44.457Z,99653.63
2023-01-15T13:43:22.423Z,99657.63
2023-01-15T13:45:50.502Z,99632.72
2023-01-15T13:48:24.069Z,99683.09
2023-01-15T13:50:59.173Z,99646.91
2023-01-15T13:53:55.024Z,99661.09
2023-01-15T13:56:27.537Z,99668.31
2023-01-15T13:58:55.508Z,99668.25
2023-01-15T14:01:33.409Z,99665.13
2023-01-15T14:04:02.221Z,99667.56
2023-01-15T14:06:36.145Z,99659.97
2023-01-15T14:09:05.124Z,99676.13
2023-01-15T14:11:44.954Z,99682.44
2023-01-15T14:14:30.529Z,99698.97
2023-01-15T14:17:14.212Z,99699.72
2023-01-15T14:19:59.349Z,99681.28
2023-01-15T14:22:28.710Z,99681.88
2023-01-15T14:25:21.212Z,99703.50
2023-01-15T14:28:04.636Z,99704.00
2023-01-15T14:31:01.993Z,99677.66
2023-01-15T14:33:50.047Z,99668.16
2023-01-15T14:36:24.595Z,99690.97
2023-01-15T14:39:06.298Z,99700.53
2023-01-15T14:41:59.259Z,99709.19
2023-01-15T14:44:31.053Z,99690.25
2023-01-15T14:47:01.720Z,99688.25
2023-01-15T14:49:42.654Z,99707.56
2023-01-15T14:52:09.868Z,99709.13
2023-01-15T14:54:39.020Z,99707.16
2023-01-15T14:57:08.294Z,99714.41
2023-01-15T14:59:46.948Z,99698.81
2023-01-15T15:02:20.721Z,99702.13
2023-01-15T15:04:53.484Z,99699.00
2023-01-15T15:07:31.750Z,99705.16
2023-01-15T15:10:19.243Z,99712.34
2023-01-15T15:12:48.551Z,99711.97
2023-01-15T15:15:27.288Z,99729.69
2023-01-15T15:18:16.006Z,99709.13
2023-01-15T15:20:42.440Z,99702.53
2023-01-15T15:23:45.194Z,99744.63
2023-01-15T15:26:19.689Z,99717.13
2023-01-15T15:28:57.258Z,99711.19
2023-01-15T15:31:27.157Z,99740.25
2023-01-15T15:33:56.090Z,99722.91
2023-01-15T15:36:29.899Z,99712.78
2023-01-15T15:39:14.354Z,99718.00
2023-01-15T15:42:03.156Z,99726.25
2023-01-15T15:44:59.238Z,99703.41
2023-01-15T15:47:44.775Z,99723.56
2023-01-15T15:50:29.170Z,99714.44
2023-01-15T15:52:58.076Z,99717.19
2023-01-15T15:55:37.151Z,99725.88
2023-01-15T15:58:04.866Z,99740.50
2023-01-15T16:00:41.381Z,99732.53
2023-01-15T16:03:20.877Z,99754.59
2023-01-15T16:05:57.167Z,99753.44
2023-01-15T16:08:24.237Z,99759.75
2023-01-15T16:10:57.727Z,99736.13
2023-01-15T16:13:42.913Z,99753.38
2023-01-15T16:16:10.648Z,99751.97
2023-01-15T16:18:44.477Z,99749.50
2023-01-15T16:21:17.094Z,99764.97
2023-01-15T16:23:46.018Z,99749.91
2023-01-15T16:26:22.080Z,99743.53
2023-01-15T16:29:00.280Z,99761.34
2023-01-15T16:31:28.655Z,99766.13
2023-01-15T16:33:57.791Z,99777.84
2023-01-15T16:36:26.079Z,99757.41
2023-01-15T16:38:54.166Z,99746.31
2023-01-15T16:41:27.763Z,99754.63
2023-01-15T16:44:01.962Z,99769.28
2023-01-15T16:46:31.847Z,99769.25
2023-01-15T16:49:18.826Z,99766.56
2023-01-15T16:51:45.320Z,99751.81
2023-01-15T16:54:29.952Z,99734.59
2023-01-15T16:57:32.042Z,99770.38
2023-01-15T17:00:02.857Z,99740.06
2023-01-15T17:02:41.440Z,99741.59
2023-01-15T17:05:17.308Z,99753.34
2023-01-15T17:07:49.631Z,99752.72
2023-01-15T17:10:26.123Z,99762.84
2023-01-15T17:12:56.090Z,99743.22
2023-01-15T17:15:25.515Z,99761.81
2023-01-15T17:17:53.651Z,99756.66
2023-01-15T17:20:27.070Z,99758.19
2023-01-15T17:22:54.271Z,99769.97
2023-01-15T17:25:28.076Z,99778.28
2023-01-15T17:27:55.848Z,99774.00
2023-01-15T17:30:25.330Z,99758.53
2023-01-15T17:32:51.818Z,99762.97
2023-01-15T17:35:30.607Z,99777.91
2023-01-15T17:37:57.167Z,99766.41
2023-01-15T17:40:24.067Z,99774.31
2023-01-15T17:42:50.861Z,99780.22
2023-01-15T17:45:19.962Z,99765.25
2023-01-15T17:47:46.501Z,99764.56
2023-01-15T17:50:14.461Z,99779.13
2023-01-15T17:52:41.407Z,99788.56
2023-01-15T17:55:30.451Z,99769.97
2023-01-15T17:58:15.406Z,99769.16
2023-01-15T18:01:00.842Z,99767.63
2023-01-15T18:03:46.309Z,99785.81
2023-01-15T18:06:15.092Z,99760.44
2023-01-15T18:08:45.168Z,99769.63
2023-01-15T18:11:11.767Z,99781.91
2023-01-15T18:13:41.784Z,99758.94
2023-01-15T18:16:09.403Z,99764.84
2023-01-15T18:18:36.395Z,99768.38
2023-01-15T18:21:03.545Z,99747.88
2023-01-15T18:23:32.895Z,99758.13
2023-01-15T18:26:03.873Z,99770.44
2023-01-15T18:28:34.748Z,99763.75
2023-01-15T18:31:02.558Z,99770.47
2023-01-15T18:33:29.447Z,99771.22
2023-01-15T18:36:22.350Z,99770.44
2023-01-15T18:38:48.909Z,99759.81
2023-01-15T18:41:36.252Z,99759.47
2023-01-15T18:44:37.598Z,99768.81
2023-01-15T18:47:12.129Z,99768.47
2023-01-15T18:49:40.635Z,99784.66
2023-01-15T18:52:27.692Z,99762.50
2023-01-15T18:54:54.776Z,99758.25
2023-01-15T18:57:22.944Z,99772.84
2023-01-15T18:59:49.991Z,99779.94
2023-01-15T19:02:18.506Z,99766.56
2023-01-15T19:04:45.300Z,99769.31
2023-01-15T19:07:11.986Z,99772.47
2023-01-15T19:09:38.855Z,99765.84
2023-01-15T19:12:06.301Z,99796.97
2023-01-15T19:14:52.416Z,99783.53
2023-01-15T19:17:42.858Z,99771.31
2023-01-15T19:20:14.336Z,99769.78
2023-01-15T19:22:58.956Z,99793.88
2023-01-15T19:25:31.266Z,99782.84
2023-01-15T19:27:58.418Z,99778.91
2023-01-15T19:30:27.782Z,99796.19
2023-01-15T19:32:54.923Z,99777.25
2023-01-15T19:35:21.739Z,99777.69
2023-01-15T19:37:48.809Z,99756.47
2023-01-15T19:40:22.823Z,99777.34
2023-01-15T19:43:09.376Z,99773.75
2023-01-15T19:45:57.718Z,99758.31
2023-01-15T19:48:42.694Z,99750.94
2023-01-15T19:51:09.163Z,99747.41
2023-01-15T19:53:37.382Z,99748.97
2023-01-15T19:56:04.642Z,99741.91
2023-01-15T19:58:35.031Z,99747.31
2023-01-15T20:01:02.106Z,99734.81
2023-01-15T20:03:28.919Z,99733.59
2023-01-15T20:05:55.680Z,99730.13
2023-01-15T20:08:22.501Z,99714.69
2023-01-15T20:10:50.453Z,99728.47
2023-01-15T20:13:39.795Z,99711.19
2023-01-15T20:16:14.980Z,99711.91
2023-01-15T20:18:41.498Z,99706.34
2023-01-15T20:21:08.668Z,99709.53
2023-01-15T20:23:36.640Z,99702.47
2023-01-15T20:26:05.998Z,99691.84
2023-01-15T20:28:33.526Z,99706.81
2023-01-15T20:31:00.160Z,99681.63
2023-01-15T20:33:26.880Z,99686.69
2023-01-15T20:35:54.430Z,99684.75
2023-01-15T20:38:26.713Z,99697.75
2023-01-15T20:40:53.211Z,99683.59
2023-01-15T20:43:38.624Z,99678.03
2023-01-15T20:46:14.046Z,99677.22
2023-01-15T20:48:58.910Z,99673.28
2023-01-15T20:51:25.445Z,99661.59
2023-01-15T20:53:53.206Z,99675.31
2023-01-15T20:56:19.753Z,99667.00
2023-01-15T20:58:46.547Z,99673.66
2023-01-15T21:01:13.318Z,99664.81
2023-01-15T21:03:40.137Z,99667.06
2023-01-15T21:06:07.688Z,99651.28
2023-01-15T21:08:35.072Z,99650.53
2023-01-15T21:11:02.180Z,99652.53
2023-01-15T21:13:28.853Z,99642.28
2023-01-15T21:15:59.741Z,99644.63
2023-01-15T21:18:27.642Z,99644.22
2023-01-15T21:20:54.607Z,99638.31
2023-01-15T21:23:21.975Z,99625.28
2023-01-15T21:25:48.807Z,99620.63
2023-01-15T21:28:15.303Z,99628.44
2023-01-15T21:30:44.231Z,99619.88
2023-01-15T21:33:11.331Z,99610.84
2023-01-15T21:35:41.438Z,99607.78
2023-01-15T21:38:09.020Z,99599.88
2023-01-15T21:40:39.144Z,99590.00
2023-01-15T21:43:25.049Z,99603.53
2023-01-15T21:45:51.865Z,99596.78
2023-01-15T21:48:19.178Z,99607.44
2023-01-15T21:50:45.774Z,99586.09
2023-01-15T21:53:12.287Z,99575.91
2023-01-15T21:55:38.797Z,99570.38
2023-01-15T21:58:05.281Z,99566.50
2023-01-15T22:00:31.781Z,99572.50
2023-01-15T22:02:58.470Z,99571.56
2023-01-15T22:05:25.158Z,99566.16
2023-01-15T22:07:51.723Z,99557.22
2023-01-15T22:10:18.532Z,99553.28
2023-01-15T22:12:45.062Z,99556.34
2023-01-15T22:15:12.230Z,99548.53
2023-01-15T22:17:38.971Z,99556.38
2023-01-15T22:20:07.206Z,99548.59
2023-01-15T22:22:36.316Z,99558.06
2023-01-15T22:25:05.030Z,99566.44
2023-01-15T22:27:34.509Z,99558.91
2023-01-15T22:30:01.337Z,99556.69
2023-01-15T22:32:27.876Z,99557.47
2023-01-15T22:34:54.355Z,99543.47
2023-01-15T22:37:20.841Z,99541.06
2023-01-15T22:39:47.599Z,99513.25
2023-01-15T22:42:27.769Z,99499.47
2023-01-15T22:44:56.023Z,99514.81
2023-01-15T22:47:23.283Z,99519.97
2023-01-15T22:49:50.317Z,99523.59
2023-01-15T22:52:17.584Z,99522.75
2023-01-15T22:54:45.209Z,99522.44
2023-01-15T22:57:12.997Z,99506.28
2023-01-15T22:59:39.599Z,99498.84
2023-01-15T23:02:06.283Z,99489.44
2023-01-15T23:04:33.038Z,99484.69
2023-01-15T23:07:00.392Z,99488.66
2023-01-15T23:09:26.899Z,99482.75
2023-01-15T23:11:53.374Z,99479.19
2023-01-15T23:14:21.337Z,99464.28
2023-01-15T23:16:48.183Z,99458.75
2023-01-15T23:19:14.758Z,99451.25
2023-01-15T23:21:42.150Z,99447.00
2023-01-15T23:24:09.316Z,99444.94
2023-01-15T23:26:36.204Z,99430.47
2023-01-15T23:29:03.602Z,99424.16
2023-01-15T23:31:30.412Z,99435.50
2023-01-15T23:33:57.308Z,99431.19
2023-01-15T23:36:24.215Z,99412.25
2023-01-15T23:38:50.820Z,99418.56
2023-01-15T23:41:40.157Z,99406.75
2023-01-15T23:44:32.216Z,99415.00
2023-01-15T23:46:58.767Z,99408.28
2023-01-15T23:49:25.196Z,99395.81
2023-01-15T23:51:51.666Z,99397.41
2023-01-15T23:54:18.311Z,99387.16
2023-01-15T23:56:46.206Z,99391.13
2023-01-15T23:59:12.755Z,99373.44
